sensor_id;sensor_type;location;lat;lon;timestamp;P1;durP1;ratioP1;P2;durP2;ratioP2
70675;SDS011;59069;52.242;20.900;2023-03-13T00:00:49;19.75;;;6.65;;
70675;SDS011;59069;52.242;20.900;2023-03-13T00:03:16;19.15;;;7.50;;
70675;SDS011;59069;52.242;20.900;2023-03-13T00:05:41;17.97;;;6.70;;
70675;SDS011;59069;52.242;20.900;2023-03-13T00:08:07;18.27;;;6.97;;
70675;SDS011;59069;52.242;20.900;2023-03-13T00:10:35;17.40;;;6.13;;
70675;SDS011;59069;52.242;20.900;2023-03-13T00:13:01;29.00;;;13.10;;
70675;SDS011;59069;52.242;20.900;2023-03-13T00:15:27;31.67;;;13.77;;
70675;SDS011;59069;52.242;20.900;2023-03-13T00:17:52;17.60;;;5.80;;
70675;SDS011;59069;52.242;20.900;2023-03-13T00:20:18;17.67;;;5.83;;
70675;SDS011;59069;52.242;20.900;2023-03-13T00:22:43;14.38;;;5.32;;
70675;SDS011;59069;52.242;20.900;2023-03-13T00:25:08;15.20;;;4.93;;
70675;SDS011;59069;52.242;20.900;2023-03-13T00:27:34;15.20;;;5.73;;
70675;SDS011;59069;52.242;20.900;2023-03-13T00:30:00;14.35;;;4.72;;
70675;SDS011;59069;52.242;20.900;2023-03-13T00:32:25;14.27;;;5.20;;
70675;SDS011;59069;52.242;20.900;2023-03-13T00:34:51;14.47;;;5.07;;
70675;SDS011;59069;52.242;20.900;2023-03-13T00:37:16;13.63;;;4.88;;
70675;SDS011;59069;52.242;20.900;2023-03-13T00:39:42;14.97;;;4.87;;
70675;SDS011;59069;52.242;20.900;2023-03-13T00:42:07;15.77;;;4.60;;
70675;SDS011;59069;52.242;20.900;2023-03-13T00:44:33;30.20;;;13.40;;
70675;SDS011;59069;52.242;20.900;2023-03-13T00:46:58;15.82;;;5.53;;
70675;SDS011;59069;52.242;20.900;2023-03-13T00:49:24;12.17;;;4.27;;
70675;SDS011;59069;52.242;20.900;2023-03-13T00:51:49;15.77;;;4.97;;
70675;SDS011;59069;52.242;20.900;2023-03-13T00:54:15;10.80;;;4.03;;
70675;SDS011;59069;52.242;20.900;2023-03-13T00:56:40;13.17;;;4.20;;
70675;SDS011;59069;52.242;20.900;2023-03-13T00:59:06;13.27;;;4.70;;
70675;SDS011;59069;52.242;20.900;2023-03-13T01:01:32;10.70;;;4.28;;
70675;SDS011;59069;52.242;20.900;2023-03-13T01:04:02;10.38;;;3.50;;
70675;SDS011;59069;52.242;20.900;2023-03-13T01:06:31;14.80;;;4.10;;
70675;SDS011;59069;52.242;20.900;2023-03-13T01:08:58;12.82;;;4.60;;
70675;SDS011;59069;52.242;20.900;2023-03-13T01:11:25;11.82;;;3.53;;
70675;SDS011;59069;52.242;20.900;2023-03-13T01:13:56;13.33;;;4.03;;
70675;SDS011;59069;52.242;20.900;2023-03-13T01:16:24;12.32;;;4.35;;
70675;SDS011;59069;52.242;20.900;2023-03-13T01:18:51;10.10;;;3.65;;
70675;SDS011;59069;52.242;20.900;2023-03-13T01:21:19;11.77;;;4.00;;
70675;SDS011;59069;52.242;20.900;2023-03-13T01:23:46;13.27;;;4.10;;
70675;SDS011;59069;52.242;20.900;2023-03-13T01:26:13;10.07;;;3.60;;
70675;SDS011;59069;52.242;20.900;2023-03-13T01:28:39;14.88;;;4.20;;
70675;SDS011;59069;52.242;20.900;2023-03-13T01:33:44;10.67;;;4.27;;
70675;SDS011;59069;52.242;20.900;2023-03-13T01:36:11;12.38;;;3.83;;
70675;SDS011;59069;52.242;20.900;2023-03-13T01:38:37;12.90;;;4.27;;
70675;SDS011;59069;52.242;20.900;2023-03-13T01:41:04;19.15;;;4.78;;
70675;SDS011;59069;52.242;20.900;2023-03-13T01:43:32;11.32;;;3.97;;
70675;SDS011;59069;52.242;20.900;2023-03-13T01:46:18;11.40;;;4.10;;
70675;SDS011;59069;52.242;20.900;2023-03-13T01:54:17;15.63;;;4.60;;
70675;SDS011;59069;52.242;20.900;2023-03-13T01:57:17;27.20;;;7.35;;
70675;SDS011;59069;52.242;20.900;2023-03-13T01:59:50;12.05;;;4.13;;
70675;SDS011;59069;52.242;20.900;2023-03-13T02:02:20;14.48;;;4.80;;
70675;SDS011;59069;52.242;20.900;2023-03-13T02:04:48;11.07;;;4.30;;
70675;SDS011;59069;52.242;20.900;2023-03-13T02:07:19;13.55;;;4.18;;
70675;SDS011;59069;52.242;20.900;2023-03-13T02:09:52;11.75;;;4.57;;
70675;SDS011;59069;52.242;20.900;2023-03-13T02:12:28;12.27;;;4.05;;
70675;SDS011;59069;52.242;20.900;2023-03-13T02:14:57;14.73;;;4.47;;
70675;SDS011;59069;52.242;20.900;2023-03-13T02:17:25;14.47;;;4.30;;
70675;SDS011;59069;52.242;20.900;2023-03-13T02:19:51;15.38;;;5.03;;
70675;SDS011;59069;52.242;20.900;2023-03-13T02:25:16;13.13;;;4.90;;
70675;SDS011;59069;52.242;20.900;2023-03-13T02:28:26;12.63;;;4.88;;
70675;SDS011;59069;52.242;20.900;2023-03-13T02:30:50;14.15;;;4.93;;
70675;SDS011;59069;52.242;20.900;2023-03-13T02:33:18;13.48;;;4.63;;
70675;SDS011;59069;52.242;20.900;2023-03-13T02:35:45;13.07;;;5.13;;
70675;SDS011;59069;52.242;20.900;2023-03-13T02:38:13;13.70;;;4.63;;
70675;SDS011;59069;52.242;20.900;2023-03-13T02:40:50;15.07;;;5.25;;
70675;SDS011;59069;52.242;20.900;2023-03-13T02:43:20;14.77;;;5.20;;
70675;SDS011;59069;52.242;20.900;2023-03-13T02:46:02;15.43;;;5.18;;
70675;SDS011;59069;52.242;20.900;2023-03-13T02:48:32;14.20;;;5.55;;
70675;SDS011;59069;52.242;20.900;2023-03-13T02:51:02;11.40;;;4.93;;
70675;SDS011;59069;52.242;20.900;2023-03-13T02:53:30;16.48;;;5.28;;
70675;SDS011;59069;52.242;20.900;2023-03-13T02:55:58;51.85;;;12.88;;
70675;SDS011;59069;52.242;20.900;2023-03-13T02:58:24;15.93;;;5.90;;
70675;SDS011;59069;52.242;20.900;2023-03-13T03:00:50;14.80;;;5.70;;
70675;SDS011;59069;52.242;20.900;2023-03-13T03:03:17;12.35;;;4.65;;
70675;SDS011;59069;52.242;20.900;2023-03-13T03:05:42;15.60;;;4.90;;
70675;SDS011;59069;52.242;20.900;2023-03-13T03:08:08;14.50;;;5.55;;
70675;SDS011;59069;52.242;20.900;2023-03-13T03:10:34;13.27;;;5.00;;
70675;SDS011;59069;52.242;20.900;2023-03-13T03:13:01;13.38;;;4.68;;
70675;SDS011;59069;52.242;20.900;2023-03-13T03:15:26;14.17;;;5.07;;
70675;SDS011;59069;52.242;20.900;2023-03-13T03:17:52;13.17;;;5.00;;
70675;SDS011;59069;52.242;20.900;2023-03-13T03:20:17;15.98;;;5.78;;
70675;SDS011;59069;52.242;20.900;2023-03-13T03:22:43;17.10;;;5.67;;
70675;SDS011;59069;52.242;20.900;2023-03-13T03:25:08;14.83;;;5.37;;
70675;SDS011;59069;52.242;20.900;2023-03-13T03:27:34;19.48;;;6.30;;
70675;SDS011;59069;52.242;20.900;2023-03-13T03:30:00;15.45;;;5.72;;
70675;SDS011;59069;52.242;20.900;2023-03-13T03:32:26;16.47;;;5.67;;
70675;SDS011;59069;52.242;20.900;2023-03-13T03:34:52;16.55;;;6.30;;
70675;SDS011;59069;52.242;20.900;2023-03-13T03:37:17;14.37;;;5.20;;
70675;SDS011;59069;52.242;20.900;2023-03-13T03:39:43;14.10;;;5.80;;
70675;SDS011;59069;52.242;20.900;2023-03-13T03:42:08;19.25;;;5.90;;
70675;SDS011;59069;52.242;20.900;2023-03-13T03:44:34;17.10;;;5.83;;
70675;SDS011;59069;52.242;20.900;2023-03-13T03:46:59;16.70;;;5.80;;
70675;SDS011;59069;52.242;20.900;2023-03-13T03:49:25;15.52;;;5.82;;
70675;SDS011;59069;52.242;20.900;2023-03-13T03:51:50;14.33;;;5.37;;
70675;SDS011;59069;52.242;20.900;2023-03-13T03:54:16;14.77;;;5.37;;
70675;SDS011;59069;52.242;20.900;2023-03-13T03:56:41;18.30;;;6.45;;
70675;SDS011;59069;52.242;20.900;2023-03-13T03:59:07;18.87;;;5.93;;
70675;SDS011;59069;52.242;20.900;2023-03-13T04:01:32;14.73;;;5.87;;
70675;SDS011;59069;52.242;20.900;2023-03-13T04:03:58;14.05;;;5.05;;
70675;SDS011;59069;52.242;20.900;2023-03-13T04:06:24;15.13;;;5.97;;
70675;SDS011;59069;52.242;20.900;2023-03-13T04:08:49;15.75;;;6.28;;
70675;SDS011;59069;52.242;20.900;2023-03-13T04:11:15;14.43;;;5.43;;
70675;SDS011;59069;52.242;20.900;2023-03-13T04:13:40;15.67;;;5.93;;
70675;SDS011;59069;52.242;20.900;2023-03-13T04:16:06;15.45;;;5.65;;
70675;SDS011;59069;52.242;20.900;2023-03-13T04:18:33;14.53;;;5.10;;
70675;SDS011;59069;52.242;20.900;2023-03-13T04:20:59;15.95;;;5.53;;
70675;SDS011;59069;52.242;20.900;2023-03-13T04:23:26;16.65;;;6.15;;
70675;SDS011;59069;52.242;20.900;2023-03-13T04:25:52;12.47;;;5.23;;
70675;SDS011;59069;52.242;20.900;2023-03-13T04:28:17;16.13;;;5.63;;
70675;SDS011;59069;52.242;20.900;2023-03-13T04:30:43;14.27;;;6.50;;
70675;SDS011;59069;52.242;20.900;2023-03-13T04:33:08;14.90;;;6.37;;
70675;SDS011;59069;52.242;20.900;2023-03-13T04:35:34;14.75;;;5.45;;
70675;SDS011;59069;52.242;20.900;2023-03-13T04:37:59;16.30;;;5.50;;
70675;SDS011;59069;52.242;20.900;2023-03-13T04:40:26;18.35;;;6.32;;
70675;SDS011;59069;52.242;20.900;2023-03-13T04:42:52;14.40;;;6.00;;
70675;SDS011;59069;52.242;20.900;2023-03-13T04:45:17;14.35;;;5.93;;
70675;SDS011;59069;52.242;20.900;2023-03-13T04:47:43;14.47;;;5.90;;
70675;SDS011;59069;52.242;20.900;2023-03-13T04:50:10;19.05;;;6.40;;
70675;SDS011;59069;52.242;20.900;2023-03-13T04:52:36;15.87;;;6.00;;
70675;SDS011;59069;52.242;20.900;2023-03-13T04:55:01;16.13;;;6.20;;
70675;SDS011;59069;52.242;20.900;2023-03-13T04:57:27;15.65;;;6.93;;
70675;SDS011;59069;52.242;20.900;2023-03-13T04:59:52;17.17;;;6.23;;
70675;SDS011;59069;52.242;20.900;2023-03-13T05:02:18;14.03;;;5.73;;
70675;SDS011;59069;52.242;20.900;2023-03-13T05:04:43;16.98;;;5.72;;
70675;SDS011;59069;52.242;20.900;2023-03-13T05:07:09;17.03;;;6.30;;
70675;SDS011;59069;52.242;20.900;2023-03-13T05:09:34;16.87;;;6.10;;
70675;SDS011;59069;52.242;20.900;2023-03-13T05:12:00;15.88;;;6.00;;
70675;SDS011;59069;52.242;20.900;2023-03-13T05:14:25;16.63;;;6.20;;
70675;SDS011;59069;52.242;20.900;2023-03-13T05:16:51;18.08;;;6.35;;
70675;SDS011;59069;52.242;20.900;2023-03-13T05:19:16;15.30;;;6.53;;
70675;SDS011;59069;52.242;20.900;2023-03-13T05:21:42;16.03;;;6.30;;
70675;SDS011;59069;52.242;20.900;2023-03-13T05:24:08;15.50;;;6.65;;
70675;SDS011;59069;52.242;20.900;2023-03-13T05:26:33;16.17;;;6.17;;
70675;SDS011;59069;52.242;20.900;2023-03-13T05:28:59;16.23;;;6.50;;
70675;SDS011;59069;52.242;20.900;2023-03-13T05:31:24;17.30;;;6.75;;
70675;SDS011;59069;52.242;20.900;2023-03-13T05:33:50;16.60;;;6.53;;
70675;SDS011;59069;52.242;20.900;2023-03-13T05:36:15;14.40;;;6.50;;
70675;SDS011;59069;52.242;20.900;2023-03-13T05:38:41;16.25;;;6.55;;
70675;SDS011;59069;52.242;20.900;2023-03-13T05:41:06;18.63;;;6.77;;
70675;SDS011;59069;52.242;20.900;2023-03-13T05:43:32;17.80;;;7.10;;
70675;SDS011;59069;52.242;20.900;2023-03-13T05:45:57;16.90;;;6.35;;
70675;SDS011;59069;52.242;20.900;2023-03-13T05:48:23;19.00;;;7.10;;
70675;SDS011;59069;52.242;20.900;2023-03-13T05:50:48;17.13;;;6.50;;
70675;SDS011;59069;52.242;20.900;2023-03-13T05:53:14;16.10;;;6.82;;
70675;SDS011;59069;52.242;20.900;2023-03-13T05:55:39;14.90;;;6.73;;
70675;SDS011;59069;52.242;20.900;2023-03-13T05:58:06;19.75;;;7.30;;
70675;SDS011;59069;52.242;20.900;2023-03-13T06:00:31;16.07;;;7.40;;
70675;SDS011;59069;52.242;20.900;2023-03-13T06:02:57;17.33;;;7.22;;
70675;SDS011;59069;52.242;20.900;2023-03-13T06:05:23;18.47;;;7.33;;
70675;SDS011;59069;52.242;20.900;2023-03-13T06:07:49;15.38;;;7.00;;
70675;SDS011;59069;52.242;20.900;2023-03-13T06:10:14;15.83;;;6.97;;
70675;SDS011;59069;52.242;20.900;2023-03-13T06:12:40;17.38;;;7.53;;
70675;SDS011;59069;52.242;20.900;2023-03-13T06:15:06;17.97;;;7.23;;
70675;SDS011;59069;52.242;20.900;2023-03-13T06:17:33;18.77;;;7.70;;
70675;SDS011;59069;52.242;20.900;2023-03-13T06:19:59;20.58;;;7.45;;
70675;SDS011;59069;52.242;20.900;2023-03-13T06:22:24;19.07;;;6.90;;
70675;SDS011;59069;52.242;20.900;2023-03-13T06:24:50;19.23;;;7.15;;
70675;SDS011;59069;52.242;20.900;2023-03-13T06:27:16;18.63;;;7.50;;
70675;SDS011;59069;52.242;20.900;2023-03-13T06:29:41;18.00;;;7.87;;
70675;SDS011;59069;52.242;20.900;2023-03-13T06:32:07;19.65;;;7.38;;
70675;SDS011;59069;52.242;20.900;2023-03-13T06:34:32;20.03;;;8.73;;
70675;SDS011;59069;52.242;20.900;2023-03-13T06:36:58;19.67;;;7.50;;
70675;SDS011;59069;52.242;20.900;2023-03-13T06:39:24;15.93;;;7.47;;
70675;SDS011;59069;52.242;20.900;2023-03-13T06:41:50;17.80;;;7.78;;
70675;SDS011;59069;52.242;20.900;2023-03-13T06:44:15;18.90;;;8.40;;
70675;SDS011;59069;52.242;20.900;2023-03-13T06:46:41;17.30;;;7.17;;
70675;SDS011;59069;52.242;20.900;2023-03-13T06:49:06;20.45;;;8.52;;
70675;SDS011;59069;52.242;20.900;2023-03-13T06:51:32;19.67;;;8.07;;
70675;SDS011;59069;52.242;20.900;2023-03-13T06:53:57;17.95;;;7.55;;
70675;SDS011;59069;52.242;20.900;2023-03-13T06:56:23;16.43;;;7.20;;
70675;SDS011;59069;52.242;20.900;2023-03-13T06:58:49;20.57;;;7.67;;
70675;SDS011;59069;52.242;20.900;2023-03-13T07:01:15;17.10;;;7.68;;
70675;SDS011;59069;52.242;20.900;2023-03-13T07:03:42;18.73;;;7.78;;
70675;SDS011;59069;52.242;20.900;2023-03-13T07:06:08;18.17;;;8.38;;
70675;SDS011;59069;52.242;20.900;2023-03-13T07:08:35;20.13;;;8.23;;
70675;SDS011;59069;52.242;20.900;2023-03-13T07:11:02;18.50;;;7.68;;
70675;SDS011;59069;52.242;20.900;2023-03-13T07:13:29;21.23;;;7.63;;
70675;SDS011;59069;52.242;20.900;2023-03-13T07:15:58;16.38;;;6.88;;
70675;SDS011;59069;52.242;20.900;2023-03-13T07:18:25;16.48;;;7.30;;
70675;SDS011;59069;52.242;20.900;2023-03-13T07:20:51;18.80;;;7.77;;
70675;SDS011;59069;52.242;20.900;2023-03-13T07:23:18;15.70;;;7.18;;
70675;SDS011;59069;52.242;20.900;2023-03-13T07:25:51;16.92;;;7.28;;
70675;SDS011;59069;52.242;20.900;2023-03-13T07:28:19;16.08;;;6.97;;
70675;SDS011;59069;52.242;20.900;2023-03-13T07:30:45;15.47;;;6.20;;
70675;SDS011;59069;52.242;20.900;2023-03-13T07:33:11;15.75;;;6.82;;
70675;SDS011;59069;52.242;20.900;2023-03-13T07:35:36;16.00;;;7.00;;
70675;SDS011;59069;52.242;20.900;2023-03-13T07:38:02;15.33;;;6.23;;
70675;SDS011;59069;52.242;20.900;2023-03-13T07:40:27;18.40;;;7.07;;
70675;SDS011;59069;52.242;20.900;2023-03-13T07:42:53;16.77;;;7.00;;
70675;SDS011;59069;52.242;20.900;2023-03-13T07:45:18;15.90;;;6.27;;
70675;SDS011;59069;52.242;20.900;2023-03-13T07:47:44;14.43;;;6.27;;
70675;SDS011;59069;52.242;20.900;2023-03-13T07:50:10;15.07;;;6.20;;
70675;SDS011;59069;52.242;20.900;2023-03-13T07:52:35;15.35;;;7.32;;
70675;SDS011;59069;52.242;20.900;2023-03-13T07:55:01;15.03;;;6.93;;
70675;SDS011;59069;52.242;20.900;2023-03-13T07:57:26;14.13;;;6.50;;
70675;SDS011;59069;52.242;20.900;2023-03-13T07:59:52;14.68;;;5.63;;
70675;SDS011;59069;52.242;20.900;2023-03-13T08:02:17;14.53;;;6.17;;
70675;SDS011;59069;52.242;20.900;2023-03-13T08:04:43;14.90;;;5.80;;
70675;SDS011;59069;52.242;20.900;2023-03-13T08:07:09;12.57;;;6.47;;
70675;SDS011;59069;52.242;20.900;2023-03-13T08:09:35;14.77;;;6.10;;
70675;SDS011;59069;52.242;20.900;2023-03-13T08:12:01;19.67;;;7.40;;
70675;SDS011;59069;52.242;20.900;2023-03-13T08:14:26;15.00;;;6.27;;
70675;SDS011;59069;52.242;20.900;2023-03-13T08:16:52;15.40;;;6.22;;
70675;SDS011;59069;52.242;20.900;2023-03-13T08:19:18;15.80;;;5.60;;
70675;SDS011;59069;52.242;20.900;2023-03-13T08:21:43;13.87;;;5.50;;
70675;SDS011;59069;52.242;20.900;2023-03-13T08:24:09;13.97;;;5.93;;
70675;SDS011;59069;52.242;20.900;2023-03-13T08:26:37;16.27;;;6.65;;
70675;SDS011;59069;52.242;20.900;2023-03-13T08:29:05;14.52;;;6.18;;
70675;SDS011;59069;52.242;20.900;2023-03-13T08:31:33;16.35;;;6.40;;
70675;SDS011;59069;52.242;20.900;2023-03-13T08:34:01;15.03;;;5.87;;
70675;SDS011;59069;52.242;20.900;2023-03-13T08:36:27;16.48;;;5.65;;
70675;SDS011;59069;52.242;20.900;2023-03-13T08:38:56;17.30;;;6.63;;
70675;SDS011;59069;52.242;20.900;2023-03-13T08:41:25;14.38;;;6.30;;
70675;SDS011;59069;52.242;20.900;2023-03-13T08:43:53;13.90;;;5.93;;
70675;SDS011;59069;52.242;20.900;2023-03-13T08:46:19;14.95;;;5.70;;
70675;SDS011;59069;52.242;20.900;2023-03-13T08:48:52;12.68;;;5.93;;
70675;SDS011;59069;52.242;20.900;2023-03-13T08:51:19;17.92;;;6.30;;
70675;SDS011;59069;52.242;20.900;2023-03-13T08:53:47;14.65;;;6.15;;
70675;SDS011;59069;52.242;20.900;2023-03-13T08:56:14;16.30;;;6.27;;
70675;SDS011;59069;52.242;20.900;2023-03-13T08:58:41;13.18;;;5.70;;
70675;SDS011;59069;52.242;20.900;2023-03-13T09:01:12;14.35;;;5.90;;
70675;SDS011;59069;52.242;20.900;2023-03-13T09:03:39;15.50;;;6.45;;
70675;SDS011;59069;52.242;20.900;2023-03-13T09:06:06;12.98;;;4.85;;
70675;SDS011;59069;52.242;20.900;2023-03-13T09:08:34;13.70;;;5.87;;
70675;SDS011;59069;52.242;20.900;2023-03-13T09:11:04;14.45;;;5.93;;
70675;SDS011;59069;52.242;20.900;2023-03-13T09:13:33;16.25;;;5.47;;
70675;SDS011;59069;52.242;20.900;2023-03-13T09:16:01;14.57;;;5.50;;
70675;SDS011;59069;52.242;20.900;2023-03-13T09:18:29;12.90;;;5.57;;
70675;SDS011;59069;52.242;20.900;2023-03-13T09:20:54;12.73;;;5.30;;
70675;SDS011;59069;52.242;20.900;2023-03-13T09:23:20;12.55;;;4.55;;
70675;SDS011;59069;52.242;20.900;2023-03-13T09:25:47;13.50;;;5.00;;
70675;SDS011;59069;52.242;20.900;2023-03-13T09:28:13;12.85;;;4.50;;
70675;SDS011;59069;52.242;20.900;2023-03-13T09:30:39;13.45;;;4.80;;
70675;SDS011;59069;52.242;20.900;2023-03-13T09:33:05;12.13;;;5.00;;
70675;SDS011;59069;52.242;20.900;2023-03-13T09:35:30;11.23;;;4.60;;
70675;SDS011;59069;52.242;20.900;2023-03-13T09:37:56;12.87;;;4.73;;
70675;SDS011;59069;52.242;20.900;2023-03-13T09:40:23;12.45;;;4.75;;
70675;SDS011;59069;52.242;20.900;2023-03-13T09:42:54;13.67;;;4.83;;
70675;SDS011;59069;52.242;20.900;2023-03-13T09:45:29;10.25;;;4.72;;
70675;SDS011;59069;52.242;20.900;2023-03-13T09:48:04;11.43;;;4.50;;
70675;SDS011;59069;52.242;20.900;2023-03-13T09:50:41;10.40;;;4.82;;
70675;SDS011;59069;52.242;20.900;2023-03-13T09:53:18;11.60;;;4.30;;
70675;SDS011;59069;52.242;20.900;2023-03-13T09:56:04;10.53;;;4.40;;
70675;SDS011;59069;52.242;20.900;2023-03-13T09:58:39;11.80;;;4.20;;
70675;SDS011;59069;52.242;20.900;2023-03-13T10:01:13;13.73;;;4.22;;
70675;SDS011;59069;52.242;20.900;2023-03-13T10:03:53;12.90;;;4.57;;
70675;SDS011;59069;52.242;20.900;2023-03-13T10:06:29;9.30;;;3.42;;
70675;SDS011;59069;52.242;20.900;2023-03-13T10:09:47;11.63;;;3.33;;
70675;SDS011;59069;52.242;20.900;2023-03-13T10:11:57;15.35;;;3.80;;
70675;SDS011;59069;52.242;20.900;2023-03-13T10:17:11;15.07;;;4.68;;
70675;SDS011;59069;52.242;20.900;2023-03-13T10:19:47;15.10;;;4.00;;
70675;SDS011;59069;52.242;20.900;2023-03-13T10:22:22;12.13;;;4.00;;
70675;SDS011;59069;52.242;20.900;2023-03-13T10:24:54;18.63;;;4.40;;
70675;SDS011;59069;52.242;20.900;2023-03-13T10:27:20;20.45;;;4.93;;
70675;SDS011;59069;52.242;20.900;2023-03-13T10:29:46;11.73;;;3.83;;
70675;SDS011;59069;52.242;20.900;2023-03-13T10:32:12;11.55;;;4.38;;
70675;SDS011;59069;52.242;20.900;2023-03-13T10:34:51;10.70;;;3.90;;
70675;SDS011;59069;52.242;20.900;2023-03-13T10:37:23;11.53;;;3.73;;
70675;SDS011;59069;52.242;20.900;2023-03-13T10:39:51;14.10;;;3.85;;
70675;SDS011;59069;52.242;20.900;2023-03-13T10:42:27;16.65;;;4.60;;
70675;SDS011;59069;52.242;20.900;2023-03-13T10:44:59;16.58;;;4.22;;
70675;SDS011;59069;52.242;20.900;2023-03-13T10:47:26;15.07;;;4.68;;
70675;SDS011;59069;52.242;20.900;2023-03-13T10:49:55;14.70;;;3.90;;
70675;SDS011;59069;52.242;20.900;2023-03-13T10:54:59;14.77;;;3.70;;
70675;SDS011;59069;52.242;20.900;2023-03-13T10:57:30;16.63;;;4.57;;
70675;SDS011;59069;52.242;20.900;2023-03-13T10:59:58;11.15;;;3.80;;
70675;SDS011;59069;52.242;20.900;2023-03-13T11:02:31;19.07;;;4.83;;
70675;SDS011;59069;52.242;20.900;2023-03-13T11:04:59;14.45;;;4.45;;
70675;SDS011;59069;52.242;20.900;2023-03-13T11:07:45;12.35;;;3.83;;
70675;SDS011;59069;52.242;20.900;2023-03-13T11:10:24;14.17;;;3.70;;
70675;SDS011;59069;52.242;20.900;2023-03-13T11:12:51;12.98;;;3.40;;
70675;SDS011;59069;52.242;20.900;2023-03-13T11:15:24;11.57;;;3.60;;
70675;SDS011;59069;52.242;20.900;2023-03-13T11:18:04;10.65;;;3.38;;
70675;SDS011;59069;52.242;20.900;2023-03-13T11:20:32;11.02;;;3.50;;
70675;SDS011;59069;52.242;20.900;2023-03-13T11:23:13;10.57;;;3.47;;
70675;SDS011;59069;52.242;20.900;2023-03-13T11:31:56;11.73;;;3.55;;
70675;SDS011;59069;52.242;20.900;2023-03-13T11:37:13;14.17;;;3.67;;
70675;SDS011;59069;52.242;20.900;2023-03-13T11:48:34;12.63;;;4.00;;
70675;SDS011;59069;52.242;20.900;2023-03-13T11:56:12;13.50;;;3.63;;
70675;SDS011;59069;52.242;20.900;2023-03-13T12:01:37;11.48;;;3.55;;
70675;SDS011;59069;52.242;20.900;2023-03-13T12:04:16;14.63;;;4.17;;
70675;SDS011;59069;52.242;20.900;2023-03-13T12:06:55;14.07;;;3.70;;
70675;SDS011;59069;52.242;20.900;2023-03-13T12:09:43;13.45;;;3.75;;
70675;SDS011;59069;52.242;20.900;2023-03-13T12:17:50;11.13;;;3.70;;
70675;SDS011;59069;52.242;20.900;2023-03-13T12:20:21;10.75;;;3.30;;
70675;SDS011;59069;52.242;20.900;2023-03-13T12:28:43;11.80;;;3.45;;
70675;SDS011;59069;52.242;20.900;2023-03-13T12:41:43;12.85;;;3.45;;
70675;SDS011;59069;52.242;20.900;2023-03-13T12:44:18;12.53;;;3.37;;
70675;SDS011;59069;52.242;20.900;2023-03-13T12:50:12;10.02;;;2.83;;
70675;SDS011;59069;52.242;20.900;2023-03-13T12:52:59;12.65;;;3.50;;
70675;SDS011;59069;52.242;20.900;2023-03-13T12:55:57;11.35;;;3.25;;
70675;SDS011;59069;52.242;20.900;2023-03-13T12:58:29;12.10;;;3.70;;
70675;SDS011;59069;52.242;20.900;2023-03-13T13:01:09;14.70;;;3.10;;
70675;SDS011;59069;52.242;20.900;2023-03-13T13:03:55;13.48;;;4.05;;
70675;SDS011;59069;52.242;20.900;2023-03-13T13:06:29;12.93;;;3.45;;
70675;SDS011;59069;52.242;20.900;2023-03-13T13:09:18;13.25;;;3.00;;
70675;SDS011;59069;52.242;20.900;2023-03-13T13:11:47;9.93;;;2.73;;
70675;SDS011;59069;52.242;20.900;2023-03-13T13:16:41;12.23;;;3.55;;
70675;SDS011;59069;52.242;20.900;2023-03-13T13:24:53;10.67;;;3.30;;
70675;SDS011;59069;52.242;20.900;2023-03-13T13:28:05;14.70;;;3.47;;
70675;SDS011;59069;52.242;20.900;2023-03-13T13:32:48;10.95;;;3.40;;
70675;SDS011;59069;52.242;20.900;2023-03-13T13:35:33;11.45;;;3.70;;
70675;SDS011;59069;52.242;20.900;2023-03-13T13:43:34;14.10;;;4.18;;
70675;SDS011;59069;52.242;20.900;2023-03-13T13:46:01;16.77;;;4.28;;
70675;SDS011;59069;52.242;20.900;2023-03-13T13:48:38;14.70;;;3.78;;
70675;SDS011;59069;52.242;20.900;2023-03-13T13:53:45;15.50;;;3.75;;
70675;SDS011;59069;52.242;20.900;2023-03-13T14:04:31;12.23;;;3.03;;
70675;SDS011;59069;52.242;20.900;2023-03-13T14:07:02;16.13;;;3.22;;
70675;SDS011;59069;52.242;20.900;2023-03-13T14:17:38;12.17;;;2.80;;
70675;SDS011;59069;52.242;20.900;2023-03-13T14:20:25;11.02;;;2.50;;
70675;SDS011;59069;52.242;20.900;2023-03-13T14:23:14;8.57;;;2.28;;
70675;SDS011;59069;52.242;20.900;2023-03-13T14:26:07;10.00;;;2.28;;
70675;SDS011;59069;52.242;20.900;2023-03-13T14:28:39;14.00;;;3.20;;
70675;SDS011;59069;52.242;20.900;2023-03-13T14:31:07;11.70;;;2.43;;
70675;SDS011;59069;52.242;20.900;2023-03-13T14:33:33;13.50;;;2.13;;
70675;SDS011;59069;52.242;20.900;2023-03-13T14:36:00;10.15;;;2.72;;
70675;SDS011;59069;52.242;20.900;2023-03-13T14:38:26;11.90;;;3.28;;
70675;SDS011;59069;52.242;20.900;2023-03-13T14:40:56;12.53;;;2.40;;
70675;SDS011;59069;52.242;20.900;2023-03-13T14:43:35;11.27;;;2.90;;
70675;SDS011;59069;52.242;20.900;2023-03-13T14:49:20;9.27;;;2.65;;
70675;SDS011;59069;52.242;20.900;2023-03-13T14:51:59;13.37;;;2.70;;
70675;SDS011;59069;52.242;20.900;2023-03-13T14:54:29;12.77;;;2.85;;
70675;SDS011;59069;52.242;20.900;2023-03-13T14:59:34;11.68;;;3.05;;
70675;SDS011;59069;52.242;20.900;2023-03-13T15:02:00;13.57;;;3.13;;
70675;SDS011;59069;52.242;20.900;2023-03-13T15:04:54;14.77;;;3.22;;
70675;SDS011;59069;52.242;20.900;2023-03-13T15:07:21;12.13;;;2.80;;
70675;SDS011;59069;52.242;20.900;2023-03-13T15:09:50;10.40;;;2.10;;
70675;SDS011;59069;52.242;20.900;2023-03-13T15:12:17;10.38;;;2.83;;
70675;SDS011;59069;52.242;20.900;2023-03-13T15:14:48;14.33;;;2.60;;
70675;SDS011;59069;52.242;20.900;2023-03-13T15:17:16;10.75;;;2.55;;
70675;SDS011;59069;52.242;20.900;2023-03-13T15:19:50;11.00;;;2.33;;
70675;SDS011;59069;52.242;20.900;2023-03-13T15:22:17;10.43;;;2.28;;
70675;SDS011;59069;52.242;20.900;2023-03-13T15:24:48;10.27;;;2.42;;
70675;SDS011;59069;52.242;20.900;2023-03-13T15:27:14;11.43;;;2.83;;
70675;SDS011;59069;52.242;20.900;2023-03-13T15:29:41;11.73;;;2.70;;
70675;SDS011;59069;52.242;20.900;2023-03-13T15:32:28;7.97;;;2.10;;
70675;SDS011;59069;52.242;20.900;2023-03-13T15:34:54;10.13;;;2.13;;
70675;SDS011;59069;52.242;20.900;2023-03-13T15:37:22;8.35;;;2.10;;
70675;SDS011;59069;52.242;20.900;2023-03-13T15:39:52;7.97;;;1.90;;
70675;SDS011;59069;52.242;20.900;2023-03-13T15:42:18;10.18;;;2.72;;
70675;SDS011;59069;52.242;20.900;2023-03-13T15:44:43;11.90;;;2.10;;
70675;SDS011;59069;52.242;20.900;2023-03-13T15:47:17;8.53;;;1.97;;
70675;SDS011;59069;52.242;20.900;2023-03-13T15:49:44;8.55;;;2.20;;
70675;SDS011;59069;52.242;20.900;2023-03-13T15:52:13;9.80;;;2.33;;
70675;SDS011;59069;52.242;20.900;2023-03-13T15:54:43;9.77;;;2.50;;
70675;SDS011;59069;52.242;20.900;2023-03-13T15:57:12;10.90;;;2.45;;
70675;SDS011;59069;52.242;20.900;2023-03-13T15:59:41;10.70;;;2.50;;
70675;SDS011;59069;52.242;20.900;2023-03-13T16:02:12;10.90;;;2.75;;
70675;SDS011;59069;52.242;20.900;2023-03-13T16:04:40;10.90;;;2.55;;
70675;SDS011;59069;52.242;20.900;2023-03-13T16:07:13;10.27;;;2.63;;
70675;SDS011;59069;52.242;20.900;2023-03-13T16:09:40;12.25;;;2.92;;
70675;SDS011;59069;52.242;20.900;2023-03-13T16:12:07;11.45;;;2.80;;
70675;SDS011;59069;52.242;20.900;2023-03-13T16:14:33;13.15;;;3.00;;
70675;SDS011;59069;52.242;20.900;2023-03-13T16:16:59;12.68;;;3.15;;
70675;SDS011;59069;52.242;20.900;2023-03-13T16:19:26;9.63;;;3.13;;